Bluffton, OH (45817)

3:57 AM EST on February 10, 2016 (GMT -0500)
Bluffton | | Change Station
CLOSE
Current Station
Personal Weather Station
Location: Bluffton, OH
Elevation: 847 ft
Nearby Weather Stations

Elev 847 ft 40.89 °N, 83.89 °W | Updated 20 seconds ago

Snow
Snow
18.3 °F
Feels Like 6 °F
N
11.0
Wind Variable Wind from WNW
Gusts 14.0 mph

Today
High -- | Low -- °F
--% Chance of Precip.
Yesterday
High -- | Low -- °F
Precip. -- in
Pressure 29.85 in
Visibility 4.0 miles
Clouds Overcast 1600 ft
Windchill 6 °F
Dew Point 15 °F
Humidity 85%
Rainfall 0.00 in
Snow Depth Not available.
7:36 AM 6:03 PM
Waxing Crescent, 4% visible
METAR KAOH 100853Z AUTO 25013KT 4SM -SN BR OVC016 M08/M11 A2981 RMK AO2 SLP108 P0000 60000 T10831106 56003
Pressure 29.85 in
Visibility 4.0 miles
Clouds Overcast 1600 ft
Windchill 6 °F
Dew Point 15 °F
Humidity 85%
Rainfall 0.00 in
Snow Depth Not available.
7:36 AM 6:03 PM
Waxing Crescent, 4% visible
METAR KAOH 100853Z AUTO 25013KT 4SM -SN BR OVC016 M08/M11 A2981 RMK AO2 SLP108 P0000 60000 T10831106 56003

10-Day Weather Forecast

Almanac

Astronomy

Feb. 10, 2016 Rise Set
Actual Time
Civil Twilight
Nautical Twilight
Astronomical Twilight
Moon
Length of Visible Light
Length of Day
Tomorrow will be .
, % of the Moon is Illuminated

Today's Extremes

State Highs State Lows

Community

WunderPhotos

Upload Photos

1,891,826 photos uploaded!

WunderBlog® & News

Nearby

Air Quality

  Air Quality AQ Index Pollutant
Not available.

Snow Depth

Station Depth Elevation

Earthquake Activity

City Distance Mag. Time & Date
Minimum magnitude displayed is 2.5.

Coastal Water Temperatures

Place Temperature

Stations

Nearby Weather Stations

Station Location Temp. Windchill Dew Point Humidity Wind Precip. Elev Updated Type
                   

Watches & Warnings

There are currently no watches in effect.